Time;durP1;ratioP1;P1;durP2;ratioP2;P2;SDS_P1;SDS_P2;PMS_P1;PMS_P2;Temp;Humidity;BMP_temperature;BMP_pressure;BME280_temperature;BME280_humidity;BME280_pressure;Samples;Min_cycle;Max_cycle;Signal;HPM_P1;HPM_P2
2023/04/26 00:01:07;;;;;;;0.10;0.10;;;6.30;99.90;;;;;;5063714;28;20180;-82
2023/04/26 00:03:32;;;;;;;0.10;0.10;;;6.20;99.90;;;;;;5063670;28;20219;-83
2023/04/26 00:06:04;;;;;;;0.10;0.10;;;6.20;99.90;;;;;;5061931;28;20436;-83
2023/04/26 00:08:30;;;;;;;0.10;0.10;;;6.30;99.90;;;;;;5067076;28;20345;-83
2023/04/26 00:10:55;;;;;;;0.10;0.10;;;6.30;99.90;;;;;;5066264;28;20672;-82
2023/04/26 00:13:21;;;;;;;0.10;0.10;;;6.30;99.90;;;;;;5061656;28;20194;-84
2023/04/26 00:15:46;;;;;;;0.10;0.10;;;6.20;99.90;;;;;;5065453;28;20198;-82
2023/04/26 00:18:12;;;;;;;0.10;0.10;;;6.10;99.90;;;;;;5063470;28;20234;-83
2023/04/26 00:20:38;;;;;;;0.10;0.10;;;6.10;99.90;;;;;;5061644;28;20192;-83
2023/04/26 00:23:03;;;;;;;0.10;0.10;;;6.20;99.90;;;;;;5066021;28;20182;-82
2023/04/26 00:25:29;;;;;;;0.10;0.10;;;6.10;99.90;;;;;;5066833;28;20220;-83
2023/04/26 00:27:54;;;;;;;0.10;0.10;;;6.00;99.90;;;;;;5066500;28;20212;-82
2023/04/26 00:30:21;;;;;;;0.10;0.10;;;6.00;99.90;;;;;;5069245;28;20202;-83
2023/04/26 00:32:46;;;;;;;0.00;0.00;;;5.90;99.90;;;;;;5064946;28;20184;-82
2023/04/26 00:35:12;;;;;;;0.10;0.10;;;6.00;99.90;;;;;;5069738;28;20300;-81
2023/04/26 00:37:38;;;;;;;0.10;0.10;;;6.00;99.90;;;;;;5070881;28;20204;-83
2023/04/26 00:40:05;;;;;;;0.10;0.10;;;6.00;99.90;;;;;;5066472;28;20196;-83
2023/04/26 00:42:30;;;;;;;0.10;0.10;;;6.00;99.90;;;;;;5063569;28;20191;-83
2023/04/26 00:44:56;;;;;;;0.10;0.10;;;6.10;99.90;;;;;;5065804;28;20698;-83
2023/04/26 00:47:25;;;;;;;0.10;0.10;;;6.10;99.90;;;;;;5068777;28;20203;-84
2023/04/26 00:49:51;;;;;;;0.00;0.00;;;6.00;99.90;;;;;;5070435;28;20187;-83
2023/04/26 00:52:17;;;;;;;0.10;0.10;;;6.00;99.90;;;;;;5066748;28;20186;-82
2023/04/26 00:54:42;;;;;;;0.10;0.10;;;6.00;99.90;;;;;;5064891;28;20196;-83
2023/04/26 00:57:08;;;;;;;0.10;0.10;;;5.90;99.90;;;;;;5066027;28;20237;-83
2023/04/26 00:59:35;;;;;;;0.10;0.10;;;5.90;99.90;;;;;;5068253;28;20189;-81
2023/04/26 01:02:02;;;;;;;0.00;0.00;;;5.90;99.90;;;;;;5068049;28;20201;-81
2023/04/26 01:04:29;;;;;;;0.10;0.10;;;5.70;99.90;;;;;;5063714;28;20677;-83
2023/04/26 01:06:55;;;;;;;0.10;0.10;;;5.70;99.90;;;;;;5062550;28;20212;-83
2023/04/26 01:09:21;;;;;;;0.10;0.10;;;5.60;99.90;;;;;;5061112;28;20590;-82
2023/04/26 01:11:46;;;;;;;0.10;0.10;;;5.40;99.90;;;;;;5069469;28;20268;-83
2023/04/26 01:14:13;;;;;;;0.10;0.10;;;5.40;99.90;;;;;;5067237;28;20256;-83
2023/04/26 01:16:39;;;;;;;0.00;0.00;;;5.20;99.90;;;;;;5063951;28;20320;-82
2023/04/26 01:19:12;;;;;;;0.00;0.00;;;5.30;99.90;;;;;;5067664;28;20265;-82
2023/04/26 01:21:39;;;;;;;0.00;0.00;;;5.20;99.90;;;;;;5062211;28;20183;-81
2023/04/26 01:24:05;;;;;;;0.10;0.10;;;5.30;99.90;;;;;;5064531;28;20189;-83
2023/04/26 01:26:31;;;;;;;0.10;0.10;;;5.30;99.90;;;;;;5069328;28;20198;-82
2023/04/26 01:28:57;;;;;;;0.03;0.03;;;5.20;99.90;;;;;;5065570;28;20182;-83
2023/04/26 01:31:23;;;;;;;0.00;0.00;;;5.10;99.90;;;;;;5066338;28;20216;-81
2023/04/26 01:33:48;;;;;;;0.10;0.10;;;4.90;99.90;;;;;;5084144;28;20193;-82
2023/04/26 01:36:14;;;;;;;0.00;0.00;;;4.90;99.90;;;;;;5067218;28;20594;-83
2023/04/26 01:38:39;;;;;;;0.10;0.10;;;4.80;99.90;;;;;;5063065;28;20200;-82
2023/04/26 01:41:05;;;;;;;0.10;0.10;;;4.70;99.90;;;;;;5066868;28;20193;-83
2023/04/26 01:43:31;;;;;;;0.10;0.10;;;4.60;99.90;;;;;;5068797;28;20200;-82
2023/04/26 01:45:56;;;;;;;0.10;0.10;;;4.50;99.90;;;;;;5063916;28;20774;-83
2023/04/26 01:48:22;;;;;;;0.10;0.10;;;4.40;99.90;;;;;;5069026;28;20220;-82
2023/04/26 01:50:47;;;;;;;0.00;0.00;;;4.30;99.90;;;;;;5064220;28;20192;-82
2023/04/26 01:53:13;;;;;;;0.10;0.10;;;4.20;99.90;;;;;;5069177;28;20574;-82
2023/04/26 01:55:38;;;;;;;0.10;0.10;;;4.00;99.90;;;;;;5065751;28;20181;-82
2023/04/26 01:58:04;;;;;;;0.10;0.10;;;3.90;99.90;;;;;;5064315;28;20197;-82
2023/04/26 02:00:30;;;;;;;0.10;0.10;;;3.90;99.90;;;;;;5065590;28;20276;-83
2023/04/26 02:02:56;;;;;;;0.00;0.00;;;3.80;99.90;;;;;;5063351;28;21357;-83
2023/04/26 02:05:22;;;;;;;0.10;0.10;;;3.90;99.90;;;;;;5064671;28;20565;-82
2023/04/26 02:07:48;;;;;;;0.00;0.00;;;4.00;99.90;;;;;;5062790;28;20296;-84
2023/04/26 02:10:13;;;;;;;0.10;0.10;;;4.20;99.90;;;;;;5070506;28;20616;-82
2023/04/26 02:12:39;;;;;;;0.10;0.10;;;4.20;99.90;;;;;;5067514;28;20193;-83
2023/04/26 02:15:05;;;;;;;0.10;0.10;;;4.20;99.90;;;;;;5064550;28;20177;-82
2023/04/26 02:17:31;;;;;;;0.10;0.10;;;4.20;99.90;;;;;;5060302;28;20197;-83
2023/04/26 02:19:57;;;;;;;0.00;0.00;;;4.30;99.90;;;;;;5067687;28;20196;-82
2023/04/26 02:22:24;;;;;;;0.10;0.10;;;4.50;99.90;;;;;;5065162;28;20275;-82
2023/04/26 02:24:51;;;;;;;0.00;0.00;;;4.50;99.90;;;;;;5066663;28;20209;-82
2023/04/26 02:27:17;;;;;;;0.10;0.10;;;4.60;99.90;;;;;;5064835;28;20208;-83
2023/04/26 02:29:42;;;;;;;0.10;0.10;;;4.60;99.90;;;;;;5069417;28;20185;-82
2023/04/26 02:32:08;;;;;;;0.10;0.10;;;4.60;99.90;;;;;;5065096;28;20266;-82
2023/04/26 02:34:35;;;;;;;0.10;0.10;;;4.60;99.90;;;;;;5065819;28;20345;-83
2023/04/26 02:37:00;;;;;;;0.10;0.10;;;4.60;99.90;;;;;;5066148;28;20255;-83
2023/04/26 02:39:26;;;;;;;0.10;0.10;;;4.50;99.90;;;;;;5061472;28;20185;-82
2023/04/26 02:41:51;;;;;;;0.07;0.07;;;4.50;99.90;;;;;;5063560;28;20289;-83
2023/04/26 02:44:17;;;;;;;0.00;0.00;;;4.50;99.90;;;;;;5061620;28;20236;-82
2023/04/26 02:46:42;;;;;;;0.10;0.10;;;4.50;99.90;;;;;;5066717;28;20208;-83
2023/04/26 02:49:08;;;;;;;0.10;0.10;;;4.40;99.90;;;;;;5061073;28;20231;-82
2023/04/26 02:51:33;;;;;;;0.00;0.00;;;4.20;99.90;;;;;;5067587;28;20177;-83
2023/04/26 02:53:59;;;;;;;0.10;0.10;;;4.10;99.90;;;;;;5061394;28;20193;-82
2023/04/26 02:56:24;;;;;;;0.10;0.10;;;4.10;99.90;;;;;;5066669;28;20173;-82
2023/04/26 02:58:50;;;;;;;0.10;0.10;;;4.00;99.90;;;;;;5060939;28;20200;-82
2023/04/26 03:01:16;;;;;;;0.00;0.00;;;3.90;99.90;;;;;;5063861;28;20518;-83
2023/04/26 03:03:42;;;;;;;0.10;0.10;;;4.00;99.90;;;;;;5064496;28;20196;-84
2023/04/26 03:06:08;;;;;;;0.10;0.10;;;4.00;99.90;;;;;;5062319;28;20215;-82
2023/04/26 03:08:35;;;;;;;0.10;0.10;;;4.00;99.90;;;;;;5061210;28;20199;-83
2023/04/26 03:11:01;;;;;;;0.10;0.10;;;3.90;99.90;;;;;;5062756;28;21617;-82
2023/04/26 03:13:26;;;;;;;0.10;0.10;;;3.90;99.90;;;;;;5065353;28;20185;-82
2023/04/26 03:15:52;;;;;;;0.07;0.07;;;3.90;99.90;;;;;;5065334;28;20185;-81
2023/04/26 03:18:18;;;;;;;0.10;0.10;;;3.90;99.90;;;;;;5060794;28;20861;-82
2023/04/26 03:20:45;;;;;;;0.10;0.10;;;3.90;99.90;;;;;;5066845;28;20212;-81
2023/04/26 03:23:10;;;;;;;0.10;0.10;;;3.90;99.90;;;;;;5062161;28;20812;-82
2023/04/26 03:25:36;;;;;;;0.10;0.10;;;3.90;99.90;;;;;;5064035;28;20212;-82
2023/04/26 03:28:01;;;;;;;0.10;0.10;;;4.00;99.90;;;;;;5061310;28;20213;-83
2023/04/26 03:30:28;;;;;;;0.00;0.00;;;4.00;99.90;;;;;;5068563;28;20182;-82
2023/04/26 03:32:54;;;;;;;0.10;0.10;;;4.00;99.90;;;;;;5067298;28;20604;-82
2023/04/26 03:35:20;;;;;;;0.10;0.10;;;3.80;99.90;;;;;;5066239;28;20251;-83
2023/04/26 03:37:45;;;;;;;0.10;0.10;;;3.70;99.90;;;;;;5065792;28;20236;-82
2023/04/26 03:40:11;;;;;;;0.10;0.10;;;3.70;99.90;;;;;;5066702;28;20196;-83
2023/04/26 03:42:37;;;;;;;0.00;0.00;;;3.70;99.90;;;;;;5066055;28;20188;-83
2023/04/26 03:45:03;;;;;;;0.10;0.10;;;3.90;99.90;;;;;;5063506;28;20211;-83
2023/04/26 03:47:32;;;;;;;0.00;0.00;;;3.80;99.90;;;;;;5057997;28;20277;-84
2023/04/26 03:49:57;;;;;;;0.10;0.10;;;3.90;99.90;;;;;;5067087;28;20203;-83
2023/04/26 03:52:23;;;;;;;0.10;0.10;;;4.00;99.90;;;;;;5064802;28;20647;-83
2023/04/26 03:54:49;;;;;;;0.10;0.10;;;4.00;99.90;;;;;;5063570;28;20193;-83
2023/04/26 03:57:14;;;;;;;0.07;0.07;;;4.00;99.90;;;;;;5065535;28;20205;-83
2023/04/26 03:59:40;;;;;;;0.10;0.10;;;4.00;99.90;;;;;;5061382;28;20197;-83
2023/04/26 04:02:06;;;;;;;0.10;0.10;;;4.00;99.90;;;;;;5068922;28;20198;-83
2023/04/26 04:04:31;;;;;;;0.10;0.10;;;4.00;99.90;;;;;;5061996;28;20200;-84
2023/04/26 04:06:58;;;;;;;0.10;0.10;;;4.20;99.90;;;;;;5065757;28;20694;-82
2023/04/26 04:09:24;;;;;;;0.00;0.00;;;4.30;99.90;;;;;;5063149;28;20177;-82
2023/04/26 04:11:49;;;;;;;0.10;0.10;;;4.20;99.90;;;;;;5065830;28;20250;-83
2023/04/26 04:14:15;;;;;;;0.10;0.10;;;4.30;99.90;;;;;;5063054;28;20638;-83
2023/04/26 04:16:40;;;;;;;0.10;0.10;;;4.30;99.90;;;;;;5066157;28;20272;-83
2023/04/26 04:19:06;;;;;;;0.10;0.10;;;4.30;99.90;;;;;;5065208;28;20182;-82
2023/04/26 04:21:32;;;;;;;0.10;0.10;;;4.30;99.90;;;;;;5066838;28;20257;-82
2023/04/26 04:23:57;;;;;;;0.10;0.10;;;4.40;99.90;;;;;;5065261;28;20611;-83
2023/04/26 04:26:23;;;;;;;0.10;0.10;;;4.40;99.90;;;;;;5063234;28;20197;-83
2023/04/26 04:28:48;;;;;;;0.10;0.10;;;4.50;99.90;;;;;;5065847;28;20197;-84
2023/04/26 04:31:14;;;;;;;0.10;0.10;;;4.60;99.90;;;;;;5060078;28;20189;-83
2023/04/26 04:33:39;;;;;;;0.10;0.10;;;4.70;99.90;;;;;;5064375;28;20280;-83
2023/04/26 04:36:06;;;;;;;0.10;0.10;;;4.70;99.90;;;;;;5066649;28;20553;-83
2023/04/26 04:38:31;;;;;;;0.10;0.10;;;4.80;99.90;;;;;;5063947;28;20254;-81
2023/04/26 04:40:57;;;;;;;0.10;0.10;;;4.80;99.90;;;;;;5065077;28;20185;-84
2023/04/26 04:43:23;;;;;;;0.10;0.10;;;4.90;99.90;;;;;;5062062;28;20191;-83
2023/04/26 04:45:48;;;;;;;0.10;0.10;;;4.90;99.90;;;;;;5061050;28;20198;-82
2023/04/26 04:48:15;;;;;;;0.10;0.10;;;5.00;99.90;;;;;;5059149;28;20241;-80
2023/04/26 04:50:43;;;;;;;0.10;0.10;;;5.00;99.90;;;;;;5066778;28;20203;-80
2023/04/26 04:53:09;;;;;;;0.10;0.10;;;5.00;99.90;;;;;;5064490;28;20189;-82
2023/04/26 04:55:35;;;;;;;0.10;0.10;;;5.00;99.90;;;;;;5062203;28;20192;-81
2023/04/26 04:58:02;;;;;;;0.10;0.10;;;5.10;99.90;;;;;;5062674;28;20205;-80
2023/04/26 05:00:29;;;;;;;0.10;0.10;;;5.20;99.90;;;;;;5066115;28;20219;-82
2023/04/26 05:02:55;;;;;;;0.10;0.10;;;5.20;99.90;;;;;;5064467;28;20206;-84
2023/04/26 05:05:21;;;;;;;0.10;0.10;;;5.30;99.90;;;;;;5060388;28;20226;-83
2023/04/26 05:07:46;;;;;;;0.10;0.10;;;5.30;99.90;;;;;;5056711;28;20233;-83
2023/04/26 05:10:12;;;;;;;0.10;0.10;;;5.40;99.90;;;;;;5060857;28;20181;-83
2023/04/26 05:12:37;;;;;;;0.10;0.10;;;5.50;99.90;;;;;;5062664;28;20187;-84
2023/04/26 05:15:04;;;;;;;0.10;0.10;;;5.60;99.90;;;;;;5068435;28;20188;-81
2023/04/26 05:17:31;;;;;;;0.10;0.10;;;5.60;99.90;;;;;;5065817;28;20229;-82
2023/04/26 05:19:57;;;;;;;0.00;0.00;;;5.80;99.90;;;;;;5068447;28;20181;-81
2023/04/26 05:22:22;;;;;;;0.10;0.10;;;5.80;99.90;;;;;;5064621;28;20192;-82
2023/04/26 05:24:48;;;;;;;0.10;0.10;;;5.70;99.90;;;;;;5063436;28;20717;-83
2023/04/26 05:27:14;;;;;;;0.10;0.10;;;5.80;99.90;;;;;;5065631;28;20232;-82
2023/04/26 05:29:40;;;;;;;0.10;0.10;;;5.90;99.90;;;;;;5062593;28;20189;-82
2023/04/26 05:32:06;;;;;;;0.07;0.07;;;6.10;99.90;;;;;;5063096;28;20219;-82
2023/04/26 05:34:31;;;;;;;0.10;0.10;;;6.10;99.90;;;;;;5067441;28;20251;-82
2023/04/26 05:36:57;;;;;;;0.10;0.10;;;6.10;99.90;;;;;;5063384;28;20213;-82
2023/04/26 05:39:23;;;;;;;0.10;0.10;;;6.20;99.90;;;;;;5060393;28;20193;-82
2023/04/26 05:41:48;;;;;;;0.10;0.10;;;6.20;99.90;;;;;;5063288;28;20186;-82
2023/04/26 05:44:14;;;;;;;0.10;0.10;;;6.00;99.90;;;;;;5060068;28;20294;-82
2023/04/26 05:46:40;;;;;;;0.10;0.10;;;6.10;99.90;;;;;;5063730;28;20202;-82
2023/04/26 05:49:05;;;;;;;0.10;0.10;;;6.10;99.90;;;;;;5064298;28;20177;-81
2023/04/26 05:51:31;;;;;;;0.10;0.10;;;6.20;99.90;;;;;;5068151;28;20191;-82
2023/04/26 05:53:57;;;;;;;0.10;0.10;;;6.30;99.90;;;;;;5071702;28;20175;-82
2023/04/26 05:56:23;;;;;;;0.10;0.10;;;6.40;99.90;;;;;;5086340;28;20183;-82
2023/04/26 05:58:49;;;;;;;0.10;0.10;;;6.40;99.90;;;;;;5070384;28;20202;-82
2023/04/26 06:01:15;;;;;;;0.10;0.10;;;6.50;99.90;;;;;;5067617;28;20192;-81
2023/04/26 06:03:40;;;;;;;0.10;0.10;;;6.80;99.90;;;;;;5067238;28;20212;-81
2023/04/26 06:06:06;;;;;;;0.10;0.10;;;6.80;99.90;;;;;;5066803;28;20287;-82
2023/04/26 06:08:32;;;;;;;0.10;0.10;;;6.70;99.90;;;;;;5062722;28;20668;-82
2023/04/26 06:10:58;;;;;;;0.10;0.10;;;6.80;99.90;;;;;;5061730;28;20183;-82
2023/04/26 06:13:23;;;;;;;0.10;0.10;;;6.80;99.90;;;;;;5063117;28;20603;-82
2023/04/26 06:15:49;;;;;;;0.10;0.10;;;6.90;99.90;;;;;;5068472;28;20191;-82
2023/04/26 06:18:15;;;;;;;0.10;0.10;;;7.10;99.90;;;;;;5063600;28;20901;-82
2023/04/26 06:20:41;;;;;;;0.10;0.10;;;7.40;99.90;;;;;;5068609;28;20180;-82
2023/04/26 06:23:06;;;;;;;0.10;0.10;;;7.70;99.90;;;;;;5065297;28;20742;-81
2023/04/26 06:25:32;;;;;;;0.10;0.10;;;7.70;99.90;;;;;;5067810;28;20207;-82
2023/04/26 06:27:59;;;;;;;0.10;0.10;;;7.80;99.90;;;;;;5067331;28;20203;-82
2023/04/26 06:30:25;;;;;;;0.10;0.10;;;8.10;99.90;;;;;;5069506;28;20180;-82
2023/04/26 06:32:50;;;;;;;0.10;0.10;;;8.30;99.90;;;;;;5064710;28;20188;-81
2023/04/26 06:35:16;;;;;;;0.10;0.10;;;8.40;99.90;;;;;;5063432;28;20254;-82
2023/04/26 06:37:41;;;;;;;0.00;0.00;;;8.80;99.90;;;;;;5062254;28;20214;-82
2023/04/26 06:40:08;;;;;;;0.10;0.10;;;9.20;99.90;;;;;;5065867;28;20207;-83
2023/04/26 06:42:33;;;;;;;0.10;0.10;;;9.50;99.90;;;;;;5059083;28;20192;-81
2023/04/26 06:44:59;;;;;;;0.10;0.10;;;9.70;99.90;;;;;;5055550;28;20204;-86
2023/04/26 06:47:24;;;;;;;0.10;0.10;;;9.70;99.90;;;;;;5059633;28;20211;-82
2023/04/26 06:49:50;;;;;;;0.10;0.10;;;9.90;99.90;;;;;;5061168;28;20201;-81
2023/04/26 06:52:16;;;;;;;0.10;0.10;;;9.80;99.90;;;;;;5060443;28;20212;-81
2023/04/26 06:54:41;;;;;;;0.10;0.10;;;9.80;99.90;;;;;;5062867;28;20238;-82
2023/04/26 06:57:07;;;;;;;0.10;0.10;;;9.80;99.90;;;;;;5060745;28;20989;-81
2023/04/26 06:59:32;;;;;;;0.10;0.10;;;10.10;99.90;;;;;;5069098;28;20189;-84
2023/04/26 07:01:59;;;;;;;0.07;0.07;;;10.30;99.90;;;;;;5065020;28;20189;-81
2023/04/26 07:04:25;;;;;;;0.10;0.10;;;10.40;99.90;;;;;;5066258;28;20196;-80
2023/04/26 07:06:50;;;;;;;0.10;0.10;;;10.60;99.90;;;;;;5066317;28;20215;-81
2023/04/26 07:09:16;;;;;;;0.10;0.10;;;10.60;99.90;;;;;;5061555;28;20184;-81
2023/04/26 07:11:45;;;;;;;0.10;0.10;;;10.80;99.90;;;;;;5067746;28;20273;-81
2023/04/26 07:14:11;;;;;;;0.10;0.10;;;11.10;99.90;;;;;;5063081;28;20207;-82
2023/04/26 07:16:36;;;;;;;0.10;0.10;;;10.80;99.90;;;;;;5062651;28;20201;-82
2023/04/26 07:19:03;;;;;;;0.10;0.10;;;10.90;99.90;;;;;;5058120;28;20539;-81
2023/04/26 07:21:28;;;;;;;0.10;0.10;;;10.90;99.90;;;;;;5061660;28;20169;-82
2023/04/26 07:23:55;;;;;;;0.10;0.10;;;11.20;99.90;;;;;;5058144;28;20196;-82
2023/04/26 07:26:22;;;;;;;0.10;0.10;;;11.40;99.90;;;;;;5061354;28;20205;-82
2023/04/26 07:28:49;;;;;;;0.10;0.10;;;11.60;99.90;;;;;;5066967;28;20210;-81
2023/04/26 07:31:15;;;;;;;0.00;0.00;;;11.20;99.90;;;;;;5068243;28;20955;-82
2023/04/26 07:33:41;;;;;;;0.10;0.10;;;11.40;99.90;;;;;;5063864;28;20182;-81
2023/04/26 07:36:07;;;;;;;0.10;0.10;;;11.50;99.90;;;;;;5063886;28;20181;-82
2023/04/26 07:38:32;;;;;;;0.10;0.10;;;11.60;99.90;;;;;;5063407;28;20315;-82
2023/04/26 07:41:00;;;;;;;0.10;0.10;;;11.90;99.90;;;;;;5067542;28;21205;-81
2023/04/26 07:43:26;;;;;;;0.10;0.10;;;12.10;99.90;;;;;;5061688;28;20221;-82
2023/04/26 07:45:52;;;;;;;0.10;0.10;;;12.30;99.90;;;;;;5060301;28;20201;-82
2023/04/26 07:48:18;;;;;;;0.10;0.10;;;12.40;99.90;;;;;;5064322;28;20306;-81
2023/04/26 07:50:44;;;;;;;0.10;0.10;;;12.80;99.90;;;;;;5057823;28;20177;-82
2023/04/26 07:53:09;;;;;;;0.10;0.10;;;12.80;99.90;;;;;;5059684;28;20196;-83
2023/04/26 07:55:36;;;;;;;0.10;0.10;;;12.30;99.90;;;;;;5061161;28;20196;-83
2023/04/26 07:58:02;;;;;;;0.10;0.10;;;11.80;99.90;;;;;;5059875;28;20229;-81
2023/04/26 08:00:28;;;;;;;0.10;0.10;;;12.30;99.90;;;;;;5057915;28;20300;-81
2023/04/26 08:02:54;;;;;;;0.10;0.10;;;12.70;99.90;;;;;;5064279;28;20961;-81
2023/04/26 08:05:19;;;;;;;0.07;0.07;;;13.00;99.90;;;;;;5057977;28;20215;-82
2023/04/26 08:07:46;;;;;;;0.10;0.10;;;13.40;99.90;;;;;;5061424;28;20231;-81
2023/04/26 08:10:11;;;;;;;0.10;0.10;;;13.60;99.90;;;;;;5059560;28;20891;-81
2023/04/26 08:12:38;;;;;;;0.10;0.10;;;13.80;99.90;;;;;;5060161;28;20849;-81
2023/04/26 08:15:04;;;;;;;0.10;0.10;;;14.30;99.90;;;;;;5046433;28;20191;-81
2023/04/26 08:17:31;;;;;;;0.10;0.10;;;14.40;99.90;;;;;;5063129;28;20291;-80
2023/04/26 08:19:57;;;;;;;0.10;0.10;;;14.40;99.90;;;;;;5063835;28;20198;-81
2023/04/26 08:22:23;;;;;;;0.03;0.03;;;14.60;99.90;;;;;;5064485;28;20672;-81
2023/04/26 08:24:50;;;;;;;0.10;0.10;;;14.60;99.90;;;;;;5064523;28;20673;-81
2023/04/26 08:27:16;;;;;;;0.10;0.10;;;14.60;99.90;;;;;;5062890;28;20205;-81
2023/04/26 08:29:42;;;;;;;0.10;0.10;;;14.40;99.90;;;;;;5059250;28;20219;-82
2023/04/26 08:32:07;;;;;;;0.10;0.10;;;13.50;99.90;;;;;;5061529;28;20270;-80
2023/04/26 08:34:33;;;;;;;0.10;0.10;;;13.60;99.90;;;;;;5065182;28;20186;-81
2023/04/26 08:36:59;;;;;;;0.07;0.07;;;13.70;99.90;;;;;;5065446;28;20230;-81
2023/04/26 08:39:25;;;;;;;0.10;0.10;;;13.70;99.90;;;;;;5061638;28;20234;-81
2023/04/26 08:41:54;;;;;;;0.10;0.10;;;13.70;99.90;;;;;;5060852;28;20218;-80
2023/04/26 08:44:23;;;;;;;0.10;0.10;;;13.60;99.90;;;;;;5062575;28;20224;-81
2023/04/26 08:47:05;;;;;;;0.07;0.07;;;13.20;99.90;;;;;;5063542;28;20240;-81
2023/04/26 08:49:36;;;;;;;0.10;0.10;;;13.00;99.90;;;;;;5069093;28;20183;-82
2023/04/26 08:52:03;;;;;;;0.10;0.10;;;13.00;99.90;;;;;;5065646;28;20178;-81
2023/04/26 08:54:30;;;;;;;0.10;0.10;;;13.20;99.90;;;;;;5066904;28;20230;-81
2023/04/26 08:56:57;;;;;;;0.10;0.10;;;13.20;99.90;;;;;;5064023;28;20612;-81
2023/04/26 08:59:23;;;;;;;0.10;0.10;;;13.30;99.90;;;;;;5059347;28;20678;-81
2023/04/26 09:01:49;;;;;;;0.10;0.10;;;13.30;99.90;;;;;;5066254;28;20188;-82
2023/04/26 09:04:15;;;;;;;0.10;0.10;;;13.50;99.90;;;;;;5067598;28;20182;-81
2023/04/26 09:06:42;;;;;;;0.10;0.10;;;13.60;99.90;;;;;;5068025;28;20260;-81
2023/04/26 09:09:10;;;;;;;0.10;0.10;;;13.50;99.90;;;;;;5066995;28;20273;-81
2023/04/26 09:11:58;;;;;;;0.10;0.10;;;13.60;99.90;;;;;;5068007;28;20656;-81
2023/04/26 09:14:25;;;;;;;0.10;0.10;;;13.80;99.90;;;;;;5070063;28;20179;-81
2023/04/26 09:16:51;;;;;;;0.10;0.10;;;14.00;99.90;;;;;;5069229;28;20208;-81
2023/04/26 09:19:26;;;;;;;0.00;0.00;;;14.30;99.90;;;;;;5067527;28;20566;-81
2023/04/26 09:21:51;;;;;;;0.10;0.10;;;14.40;99.90;;;;;;5068706;28;20182;-81
2023/04/26 09:24:17;;;;;;;0.10;0.10;;;13.80;99.90;;;;;;5069181;28;20188;-81
2023/04/26 09:26:42;;;;;;;0.10;0.10;;;13.50;99.90;;;;;;5067990;28;20215;-82
2023/04/26 09:29:15;;;;;;;0.10;0.10;;;13.30;99.90;;;;;;5069839;28;20194;-81
2023/04/26 09:31:46;;;;;;;0.10;0.10;;;12.20;99.90;;;;;;5068676;28;20564;-80
2023/04/26 09:34:13;;;;;;;0.10;0.10;;;12.30;99.90;;;;;;5069076;28;20217;-81
2023/04/26 09:36:49;;;;;;;0.10;0.10;;;12.60;99.90;;;;;;5065650;28;20208;-81
2023/04/26 09:39:33;;;;;;;0.10;0.10;;;13.00;99.90;;;;;;5064481;28;20192;-81
2023/04/26 09:41:59;;;;;;;0.10;0.10;;;12.80;99.90;;;;;;5074821;28;20202;-81
2023/04/26 09:44:25;;;;;;;0.10;0.10;;;13.40;99.90;;;;;;5073621;28;20186;-81
2023/04/26 09:46:59;;;;;;;0.10;0.10;;;13.50;99.90;;;;;;5067571;28;20229;-81
2023/04/26 09:49:26;;;;;;;0.10;0.10;;;13.90;99.90;;;;;;5073003;28;20237;-81
2023/04/26 09:52:02;;;;;;;0.10;0.10;;;13.70;99.90;;;;;;5072398;28;20188;-81
2023/04/26 09:54:50;;;;;;;0.10;0.10;;;14.00;99.90;;;;;;5067682;28;20184;-80
2023/04/26 09:57:18;;;;;;;0.10;0.10;;;14.30;99.90;;;;;;5067390;28;20685;-80
2023/04/26 09:59:43;;;;;;;0.10;0.10;;;14.60;99.90;;;;;;5065118;28;20718;-81
2023/04/26 10:02:26;;;;;;;0.10;0.10;;;14.90;99.90;;;;;;5071778;28;20203;-81
2023/04/26 10:04:53;;;;;;;0.10;0.10;;;15.00;99.90;;;;;;5066583;28;20362;-81
2023/04/26 10:07:23;;;;;;;0.10;0.10;;;14.30;99.90;;;;;;5062559;28;20231;-81
2023/04/26 10:09:49;;;;;;;0.10;0.10;;;14.70;99.90;;;;;;5064293;28;20181;-81
2023/04/26 10:12:17;;;;;;;0.10;0.10;;;14.90;99.90;;;;;;5065897;28;20184;-81
2023/04/26 10:14:45;;;;;;;0.10;0.10;;;15.20;99.90;;;;;;5062513;28;20188;-81
2023/04/26 10:17:11;;;;;;;0.10;0.10;;;15.30;99.90;;;;;;5067562;28;20672;-81
2023/04/26 10:19:40;;;;;;;0.10;0.10;;;15.40;99.90;;;;;;5066098;28;20234;-81
2023/04/26 10:22:26;;;;;;;0.03;0.03;;;15.00;99.90;;;;;;5065878;28;20210;-81
2023/04/26 10:24:53;;;;;;;0.10;0.10;;;14.80;99.90;;;;;;5069203;28;20286;-81
2023/04/26 10:27:44;;;;;;;0.10;0.10;;;14.90;99.90;;;;;;5063817;28;20202;-81
2023/04/26 10:30:17;;;;;;;0.10;0.10;;;14.90;99.90;;;;;;5063822;28;20673;-81
2023/04/26 10:32:55;;;;;;;0.10;0.10;;;14.70;99.90;;;;;;5067867;28;20185;-81
2023/04/26 10:35:29;;;;;;;0.10;0.10;;;15.10;99.90;;;;;;5066374;28;20208;-82
2023/04/26 10:38:01;;;;;;;0.10;0.10;;;15.50;99.90;;;;;;5066530;28;20200;-81
2023/04/26 10:40:32;;;;;;;0.10;0.10;;;16.00;99.90;;;;;;5066991;28;20581;-81
2023/04/26 10:43:13;;;;;;;0.10;0.10;;;16.10;99.90;;;;;;5072577;28;20287;-81
2023/04/26 10:45:40;;;;;;;0.10;0.10;;;16.50;99.90;;;;;;5073420;28;20542;-81
2023/04/26 10:48:29;;;;;;;0.10;0.10;;;17.10;99.90;;;;;;5071015;28;20197;-81
2023/04/26 10:50:58;;;;;;;0.10;0.10;;;17.60;99.90;;;;;;5071222;28;20300;-81
2023/04/26 10:53:24;;;;;;;0.10;0.10;;;17.00;99.90;;;;;;5066820;28;20204;-81
2023/04/26 10:55:51;;;;;;;0.10;0.10;;;16.10;99.90;;;;;;5068236;28;20193;-81
2023/04/26 10:58:31;;;;;;;0.10;0.10;;;15.50;99.90;;;;;;5068352;28;20251;-81
2023/04/26 11:01:13;;;;;;;0.10;0.10;;;15.60;99.90;;;;;;5069557;28;20241;-81
2023/04/26 11:03:54;;;;;;;0.10;0.10;;;15.50;99.90;;;;;;5064419;28;20279;-81
2023/04/26 11:06:23;;;;;;;0.10;0.10;;;15.40;99.90;;;;;;5064815;28;20204;-81
2023/04/26 11:08:49;;;;;;;0.00;0.00;;;14.30;99.90;;;;;;5067481;28;20191;-81
2023/04/26 11:11:18;;;;;;;0.10;0.10;;;14.90;99.90;;;;;;5066687;28;20200;-82
2023/04/26 11:13:45;;;;;;;0.10;0.10;;;15.80;99.90;;;;;;5068140;28;20215;-82
2023/04/26 11:16:13;;;;;;;0.10;0.10;;;16.40;99.90;;;;;;5063552;28;20181;-81
2023/04/26 11:18:43;;;;;;;0.10;0.10;;;16.90;99.90;;;;;;5059741;28;20185;-81
2023/04/26 11:21:11;;;;;;;0.10;0.10;;;15.50;99.90;;;;;;5066167;28;20188;-81
2023/04/26 11:23:36;;;;;;;0.10;0.10;;;16.10;99.90;;;;;;5061304;28;20193;-81
2023/04/26 11:26:07;;;;;;;0.10;0.10;;;16.60;99.90;;;;;;5061211;28;20258;-81
2023/04/26 11:28:34;;;;;;;0.10;0.10;;;16.70;99.90;;;;;;5065204;28;20283;-81
2023/04/26 11:31:00;;;;;;;0.10;0.10;;;16.80;99.90;;;;;;5063162;28;20573;-82
2023/04/26 11:33:26;;;;;;;0.10;0.10;;;17.00;99.90;;;;;;5059083;28;20204;-81
2023/04/26 11:35:53;;;;;;;0.10;0.10;;;16.80;99.90;;;;;;5063049;28;20627;-81
2023/04/26 11:38:23;;;;;;;0.10;0.10;;;17.00;99.90;;;;;;5064688;28;20216;-81
2023/04/26 11:41:02;;;;;;;0.10;0.10;;;16.40;99.90;;;;;;5065903;28;20192;-82
2023/04/26 11:43:31;;;;;;;0.10;0.10;;;16.70;99.90;;;;;;5059685;28;20180;-81
2023/04/26 11:46:02;;;;;;;0.10;0.10;;;16.50;99.90;;;;;;5065384;28;20224;-82
2023/04/26 11:48:29;;;;;;;0.10;0.10;;;16.70;99.90;;;;;;5062391;28;20201;-81
2023/04/26 11:50:59;;;;;;;0.10;0.10;;;17.60;99.90;;;;;;5069505;28;20192;-81
2023/04/26 11:53:33;;;;;;;0.10;0.10;;;16.60;99.90;;;;;;5066660;28;20193;-81
2023/04/26 11:55:59;;;;;;;0.10;0.10;;;15.60;99.90;;;;;;5071811;28;20203;-82
2023/04/26 11:58:25;;;;;;;0.10;0.10;;;15.00;99.90;;;;;;5071185;28;20209;-81
2023/04/26 12:01:01;;;;;;;0.10;0.10;;;15.00;99.90;;;;;;5067744;28;20185;-80
2023/04/26 12:03:36;;;;;;;0.10;0.10;;;15.00;99.90;;;;;;5068596;28;20193;-81
2023/04/26 12:06:05;;;;;;;0.10;0.10;;;14.30;99.90;;;;;;5068421;28;20207;-81
2023/04/26 12:08:32;;;;;;;0.10;0.10;;;15.00;99.90;;;;;;5070289;28;20233;-81
2023/04/26 12:11:00;;;;;;;0.10;0.10;;;14.60;99.90;;;;;;5067787;28;20549;-81
2023/04/26 12:13:25;;;;;;;0.10;0.10;;;15.10;99.90;;;;;;5064787;28;20181;-81
2023/04/26 12:15:51;;;;;;;0.30;0.30;;;14.00;99.90;;;;;;5065753;28;20203;-82
2023/04/26 12:18:17;;;;;;;0.10;0.10;;;14.30;99.90;;;;;;5062334;28;20205;-81
2023/04/26 12:20:45;;;;;;;0.10;0.10;;;14.30;99.90;;;;;;5064336;28;20288;-82
2023/04/26 12:23:16;;;;;;;0.07;0.07;;;14.20;99.90;;;;;;5069004;28;20188;-81
2023/04/26 12:25:54;;;;;;;0.10;0.10;;;14.70;99.90;;;;;;5072632;28;20215;-82
2023/04/26 12:28:21;;;;;;;0.10;0.10;;;15.40;99.90;;;;;;5075324;28;20684;-81
2023/04/26 12:30:47;;;;;;;0.10;0.10;;;15.80;99.90;;;;;;5072604;28;20297;-81
2023/04/26 12:33:13;;;;;;;0.10;0.10;;;15.00;99.90;;;;;;5074346;28;20582;-81
2023/04/26 12:35:38;;;;;;;0.10;0.10;;;14.80;99.90;;;;;;5071988;28;20227;-82
2023/04/26 12:38:04;;;;;;;0.10;0.10;;;15.90;99.90;;;;;;5073135;28;20201;-81
2023/04/26 12:40:30;;;;;;;0.10;0.10;;;16.30;99.90;;;;;;5071107;28;20189;-81
2023/04/26 12:42:56;;;;;;;0.10;0.10;;;17.00;99.90;;;;;;5072196;28;20185;-81
2023/04/26 12:45:23;;;;;;;0.10;0.10;;;17.50;99.90;;;;;;5071146;28;20204;-82
2023/04/26 12:47:49;;;;;;;0.10;0.10;;;17.30;99.90;;;;;;5071198;28;20254;-82
2023/04/26 12:50:15;;;;;;;0.10;0.10;;;17.70;99.90;;;;;;5076074;28;20200;-81
2023/04/26 12:52:42;;;;;;;0.10;0.10;;;17.80;99.90;;;;;;5069743;28;20203;-82